createdAt,value
2018-10-12T00:00:28.053Z,0.00
2018-10-12T00:01:28.112Z,0.00
2018-10-12T00:02:28.172Z,0.00
2018-10-12T00:03:28.231Z,0.00
2018-10-12T00:04:28.293Z,0.00
2018-10-12T00:05:28.350Z,0.00
2018-10-12T00:06:28.411Z,0.00
2018-10-12T00:07:28.469Z,0.00
2018-10-12T00:08:28.531Z,0.00
2018-10-12T00:09:28.590Z,0.00
2018-10-12T00:10:28.648Z,0.00
2018-10-12T00:11:28.708Z,0.00
2018-10-12T00:12:28.767Z,0.00
2018-10-12T00:13:28.828Z,0.00
2018-10-12T00:14:28.887Z,0.00
2018-10-12T00:15:28.945Z,0.00
2018-10-12T00:16:29.006Z,0.00
2018-10-12T00:17:29.066Z,0.00
2018-10-12T00:18:29.125Z,0.00
2018-10-12T00:19:29.184Z,0.00
2018-10-12T00:20:29.244Z,0.00
2018-10-12T00:21:29.304Z,0.00
2018-10-12T00:22:29.363Z,0.00
2018-10-12T00:23:29.423Z,0.00
2018-10-12T00:24:29.482Z,0.00
2018-10-12T00:25:29.542Z,0.00
2018-10-12T00:26:29.601Z,0.00
2018-10-12T00:27:29.660Z,0.00
2018-10-12T00:28:29.721Z,0.00
2018-10-12T00:29:29.780Z,0.00
2018-10-12T00:30:29.989Z,0.00
2018-10-12T00:31:29.898Z,0.00
2018-10-12T00:32:29.957Z,0.00
2018-10-12T00:33:30.018Z,0.00
2018-10-12T00:34:30.077Z,0.00
2018-10-12T00:35:30.135Z,0.00
2018-10-12T00:36:30.196Z,0.00
2018-10-12T00:37:30.255Z,0.00
2018-10-12T00:38:30.315Z,0.00
2018-10-12T00:39:30.378Z,0.00
2018-10-12T00:40:30.434Z,0.00
2018-10-12T00:41:30.495Z,0.00
2018-10-12T00:42:30.555Z,0.00
2018-10-12T00:43:30.612Z,0.00
2018-10-12T00:44:30.672Z,0.00
2018-10-12T00:45:30.732Z,0.00
2018-10-12T00:46:30.791Z,0.00
2018-10-12T00:47:30.851Z,0.00
2018-10-12T00:48:30.912Z,0.00
2018-10-12T00:49:30.970Z,0.00
2018-10-12T00:50:31.031Z,0.00
2018-10-12T00:51:31.089Z,0.00
2018-10-12T00:52:31.148Z,0.00
2018-10-12T00:53:31.208Z,0.00
2018-10-12T00:54:31.269Z,0.00
2018-10-12T00:55:31.328Z,0.00
2018-10-12T00:56:31.387Z,0.00
2018-10-12T00:57:31.446Z,0.00
2018-10-12T00:58:31.508Z,0.00
2018-10-12T00:59:31.577Z,0.00
2018-10-12T01:00:31.625Z,0.00
2018-10-12T01:01:31.685Z,0.00
2018-10-12T01:02:31.749Z,0.00
2018-10-12T01:03:31.804Z,0.00
2018-10-12T01:04:31.864Z,0.00
2018-10-12T01:05:31.923Z,0.00
2018-10-12T01:06:31.995Z,0.00
2018-10-12T01:07:32.043Z,0.00
2018-10-12T01:08:32.103Z,0.00
2018-10-12T01:09:32.161Z,0.00
2018-10-12T01:10:32.223Z,0.00
2018-10-12T01:11:32.278Z,0.00
2018-10-12T01:12:32.340Z,0.00
2018-10-12T01:13:32.400Z,0.00
2018-10-12T01:14:32.460Z,0.00
2018-10-12T01:15:32.518Z,0.00
2018-10-12T01:16:32.578Z,0.00
2018-10-12T01:17:32.637Z,0.00
2018-10-12T01:18:32.697Z,0.00
2018-10-12T01:19:32.757Z,0.00
2018-10-12T01:20:32.816Z,0.00
2018-10-12T01:21:33.125Z,0.00
2018-10-12T01:22:32.935Z,0.00
2018-10-12T01:23:32.993Z,0.00
2018-10-12T01:24:33.056Z,0.00
2018-10-12T01:25:33.113Z,0.00
2018-10-12T01:26:33.172Z,0.00
2018-10-12T01:27:33.234Z,0.00
2018-10-12T01:28:33.289Z,0.00
2018-10-12T01:29:33.351Z,0.00
2018-10-12T01:30:33.411Z,0.00
2018-10-12T01:31:33.469Z,0.00
2018-10-12T01:32:33.541Z,0.00
2018-10-12T01:33:33.588Z,0.00
2018-10-12T01:34:33.647Z,0.00
2018-10-12T01:35:33.707Z,0.00
2018-10-12T01:36:33.766Z,0.00
2018-10-12T01:37:33.825Z,0.00
2018-10-12T01:38:33.889Z,0.00
2018-10-12T01:39:33.945Z,0.00
2018-10-12T01:40:34.002Z,0.00
2018-10-12T01:41:34.062Z,0.00
2018-10-12T01:42:34.121Z,0.00
2018-10-12T01:43:34.180Z,0.00
2018-10-12T01:44:34.240Z,0.00
2018-10-12T01:45:34.299Z,0.00
2018-10-12T01:46:34.366Z,0.00
2018-10-12T01:47:34.417Z,0.00
2018-10-12T01:48:34.477Z,0.00
2018-10-12T01:49:34.538Z,0.00
2018-10-12T01:50:34.597Z,0.00
2018-10-12T01:51:34.654Z,0.00
2018-10-12T01:52:34.716Z,0.00
2018-10-12T01:53:34.777Z,0.00
2018-10-12T01:54:34.834Z,0.00
2018-10-12T01:55:34.891Z,0.00
2018-10-12T01:56:34.952Z,0.00
2018-10-12T01:57:35.011Z,0.00
2018-10-12T01:58:35.109Z,0.00
2018-10-12T01:59:35.129Z,0.00
2018-10-12T02:00:35.192Z,0.00
2018-10-12T02:01:35.247Z,0.00
2018-10-12T02:02:35.306Z,0.00
2018-10-12T02:03:35.366Z,0.00
2018-10-12T02:04:35.425Z,0.00
2018-10-12T02:05:35.483Z,0.00
2018-10-12T02:06:35.544Z,0.00
2018-10-12T02:07:35.602Z,0.00
2018-10-12T02:08:35.662Z,0.00
2018-10-12T02:09:35.721Z,0.00
2018-10-12T02:10:35.781Z,0.00
2018-10-12T02:11:35.839Z,0.00
2018-10-12T02:12:35.900Z,0.00
2018-10-12T02:13:35.960Z,0.00
2018-10-12T02:14:36.017Z,0.00
2018-10-12T02:15:36.076Z,0.00
2018-10-12T02:16:36.135Z,0.00
2018-10-12T02:17:36.196Z,0.00
2018-10-12T02:18:36.254Z,0.00
2018-10-12T02:19:36.316Z,0.00
2018-10-12T02:20:36.376Z,0.00
2018-10-12T02:21:36.681Z,0.00
2018-10-12T02:22:36.491Z,0.00
2018-10-12T02:23:36.549Z,0.00
2018-10-12T02:24:36.610Z,0.00
2018-10-12T02:25:36.668Z,0.00
2018-10-12T02:26:36.728Z,0.00
2018-10-12T02:27:36.787Z,0.00
2018-10-12T02:28:36.845Z,0.00
2018-10-12T02:29:36.906Z,0.00
2018-10-12T02:30:36.965Z,0.00
2018-10-12T02:31:37.023Z,0.00
2018-10-12T02:32:37.083Z,0.00
2018-10-12T02:33:37.143Z,0.00
2018-10-12T02:34:37.204Z,0.00
2018-10-12T02:35:37.259Z,0.00
2018-10-12T02:36:37.318Z,0.00
2018-10-12T02:37:37.378Z,0.00
2018-10-12T02:38:37.437Z,0.00
2018-10-12T02:39:37.495Z,0.00
2018-10-12T02:40:37.554Z,0.00
2018-10-12T02:41:37.614Z,0.00
2018-10-12T02:42:37.674Z,0.00
2018-10-12T02:43:37.732Z,0.00
2018-10-12T02:44:37.792Z,0.00
2018-10-12T02:45:37.851Z,0.00
2018-10-12T02:46:37.908Z,0.00
2018-10-12T02:47:37.970Z,0.00
2018-10-12T02:48:38.027Z,0.00
2018-10-12T02:49:38.089Z,0.00
2018-10-12T02:50:38.144Z,0.00
2018-10-12T02:51:38.206Z,0.00
2018-10-12T02:52:38.263Z,0.00
2018-10-12T02:53:38.323Z,0.00
2018-10-12T02:54:38.381Z,0.00
2018-10-12T02:55:38.440Z,0.00
2018-10-12T02:56:38.500Z,0.00
2018-10-12T02:57:38.561Z,0.00
2018-10-12T02:58:38.619Z,0.00
2018-10-12T02:59:38.678Z,0.00
2018-10-12T03:00:38.736Z,0.00
2018-10-12T03:01:38.796Z,0.00
2018-10-12T03:02:38.855Z,0.00
2018-10-12T03:03:38.914Z,0.00
2018-10-12T03:04:38.972Z,0.00
2018-10-12T03:05:39.032Z,0.00
2018-10-12T03:06:39.091Z,0.00
2018-10-12T03:07:39.148Z,0.00
2018-10-12T03:08:39.208Z,0.00
2018-10-12T03:09:39.266Z,0.00
2018-10-12T03:10:39.327Z,0.00
2018-10-12T03:11:39.385Z,0.00
2018-10-12T03:12:39.445Z,0.00
2018-10-12T03:13:39.504Z,0.00
2018-10-12T03:14:39.564Z,0.00
2018-10-12T03:15:39.622Z,0.00
2018-10-12T03:16:39.702Z,0.00
2018-10-12T03:17:39.740Z,0.00
2018-10-12T03:18:39.807Z,0.00
2018-10-12T03:19:39.857Z,0.00
2018-10-12T03:20:39.917Z,0.00
2018-10-12T03:21:39.977Z,0.00
2018-10-12T03:22:40.062Z,0.00
2018-10-12T03:23:40.094Z,0.00
2018-10-12T03:24:40.167Z,0.00
2018-10-12T03:25:40.211Z,0.00
2018-10-12T03:26:40.272Z,0.00
2018-10-12T03:27:40.329Z,0.00
2018-10-12T03:28:40.389Z,0.00
2018-10-12T03:29:40.449Z,0.00
2018-10-12T03:30:40.508Z,0.00
2018-10-12T03:31:40.568Z,0.00
2018-10-12T03:32:40.626Z,0.00
2018-10-12T03:33:40.684Z,0.00
2018-10-12T03:34:40.744Z,0.00
2018-10-12T03:35:40.802Z,0.00
2018-10-12T03:36:40.861Z,0.00
2018-10-12T03:37:40.921Z,0.00
2018-10-12T03:38:40.982Z,0.00
2018-10-12T03:39:41.038Z,0.00
2018-10-12T03:40:41.130Z,0.00
2018-10-12T03:41:41.157Z,0.00
2018-10-12T03:42:41.215Z,0.00
2018-10-12T03:43:41.276Z,0.00
2018-10-12T03:44:41.332Z,0.00
2018-10-12T03:45:41.392Z,0.00
2018-10-12T03:46:41.452Z,0.00
2018-10-12T03:47:41.510Z,0.00
2018-10-12T03:48:41.568Z,0.00
2018-10-12T03:49:41.631Z,0.00
2018-10-12T03:50:41.687Z,0.00
2018-10-12T03:51:41.749Z,0.00
2018-10-12T03:52:41.805Z,0.00
2018-10-12T03:53:41.864Z,0.00
2018-10-12T03:54:41.922Z,0.00
2018-10-12T03:55:41.980Z,0.00
2018-10-12T03:56:42.039Z,0.00
2018-10-12T03:57:42.098Z,0.00
2018-10-12T03:58:42.158Z,0.00
2018-10-12T03:59:42.220Z,0.00
2018-10-12T04:00:42.293Z,0.00
2018-10-12T04:01:42.336Z,0.00
2018-10-12T04:02:42.442Z,0.00
2018-10-12T04:03:42.456Z,0.00
2018-10-12T04:04:42.511Z,0.00
2018-10-12T04:05:42.597Z,0.00
2018-10-12T04:06:42.633Z,0.00
2018-10-12T04:07:42.688Z,0.00
2018-10-12T04:08:42.751Z,0.00
2018-10-12T04:09:42.807Z,0.00
2018-10-12T04:10:42.866Z,0.00
2018-10-12T04:11:42.925Z,0.00
2018-10-12T04:12:43.098Z,0.00
2018-10-12T04:13:43.043Z,0.00
2018-10-12T04:14:43.102Z,0.00
2018-10-12T04:15:43.163Z,0.00
2018-10-12T04:16:43.223Z,0.00
2018-10-12T04:17:43.277Z,0.00
2018-10-12T04:18:43.338Z,0.00
2018-10-12T04:19:43.401Z,0.00
2018-10-12T04:20:43.459Z,0.00
2018-10-12T04:21:43.515Z,0.00
2018-10-12T04:22:43.573Z,0.00
2018-10-12T04:23:43.632Z,0.00
2018-10-12T04:24:43.694Z,0.00
2018-10-12T04:25:43.750Z,0.00
2018-10-12T04:26:43.810Z,0.00
2018-10-12T04:27:43.868Z,0.00
2018-10-12T04:28:43.927Z,0.00
2018-10-12T04:29:43.986Z,0.00
2018-10-12T04:30:44.045Z,0.00
2018-10-12T04:31:44.104Z,0.00
2018-10-12T04:32:44.161Z,0.00
2018-10-12T04:33:44.223Z,0.00
2018-10-12T04:34:44.280Z,0.00
2018-10-12T04:35:44.338Z,0.00
2018-10-12T04:36:44.398Z,0.00
2018-10-12T04:37:44.456Z,0.00
2018-10-12T04:38:44.516Z,0.00
2018-10-12T04:39:44.576Z,0.00
2018-10-12T04:40:44.634Z,0.00
2018-10-12T04:41:44.692Z,0.00
2018-10-12T04:42:44.752Z,0.00
2018-10-12T04:43:44.811Z,0.00
2018-10-12T04:44:45.122Z,0.00
2018-10-12T04:45:44.929Z,0.00
2018-10-12T04:46:44.993Z,0.00
2018-10-12T04:47:45.047Z,0.00
2018-10-12T04:48:45.105Z,0.00
2018-10-12T04:49:45.164Z,0.00
2018-10-12T04:50:45.224Z,0.00
2018-10-12T04:51:45.282Z,0.00
2018-10-12T04:52:45.344Z,0.00
2018-10-12T04:53:45.504Z,0.00
2018-10-12T04:54:45.460Z,0.00
2018-10-12T04:55:45.518Z,0.00
2018-10-12T04:56:45.577Z,0.00
2018-10-12T04:57:45.638Z,0.00
2018-10-12T04:58:45.698Z,0.00
2018-10-12T04:59:45.755Z,0.00
2018-10-12T05:00:45.877Z,0.00
2018-10-12T05:01:45.875Z,0.00
2018-10-12T05:02:45.931Z,0.00
2018-10-12T05:03:45.989Z,0.00
2018-10-12T05:04:46.049Z,0.00
2018-10-12T05:05:46.108Z,0.00
2018-10-12T05:06:46.170Z,0.00
2018-10-12T05:07:46.346Z,0.00
2018-10-12T05:08:46.285Z,0.00
2018-10-12T05:09:46.931Z,0.00
2018-10-12T05:10:46.405Z,0.00
2018-10-12T05:11:46.462Z,0.00
2018-10-12T05:12:47.040Z,0.00
2018-10-12T05:13:46.588Z,0.00
2018-10-12T05:14:46.638Z,0.00
2018-10-12T05:15:46.698Z,0.00
2018-10-12T05:16:46.755Z,0.00
2018-10-12T05:17:46.816Z,0.00
2018-10-12T05:18:46.875Z,4.00
2018-10-12T05:19:46.931Z,4.00
2018-10-12T05:20:46.992Z,0.00
2018-10-12T05:21:47.049Z,4.00
2018-10-12T05:22:47.110Z,4.00
2018-10-12T05:23:47.168Z,4.00
2018-10-12T05:24:47.227Z,8.00
2018-10-12T05:25:47.288Z,8.00
2018-10-12T05:26:47.345Z,8.00
2018-10-12T05:27:47.403Z,12.00
2018-10-12T05:28:47.463Z,12.00
2018-10-12T05:29:47.522Z,20.00
2018-10-12T05:30:47.578Z,20.00
2018-10-12T05:31:47.637Z,24.00
2018-10-12T05:32:47.696Z,32.00
2018-10-12T05:33:47.754Z,36.00
2018-10-12T05:34:47.813Z,44.00
2018-10-12T05:36:30.310Z,60.00
2018-10-12T05:37:30.368Z,72.00
2018-10-12T05:38:30.431Z,88.00
2018-10-12T05:39:30.487Z,104.00
2018-10-12T05:40:30.544Z,116.00
2018-10-12T05:41:30.605Z,132.00
2018-10-12T05:42:30.662Z,148.00
2018-10-12T05:43:30.852Z,160.00
2018-10-12T05:44:31.110Z,180.00
2018-10-12T05:45:30.867Z,200.00
2018-10-12T05:46:30.897Z,220.00
2018-10-12T05:47:30.956Z,244.00
2018-10-12T05:48:31.031Z,264.00
2018-10-12T05:49:31.074Z,292.00
2018-10-12T05:50:31.132Z,320.00
2018-10-12T05:51:31.192Z,352.00
2018-10-12T05:52:31.250Z,384.00
2018-10-12T05:53:31.309Z,420.00
2018-10-12T05:54:31.368Z,456.00
2018-10-12T05:55:31.426Z,496.00
2018-10-12T05:56:31.483Z,532.00
2018-10-12T05:57:31.542Z,572.00
2018-10-12T05:59:29.082Z,656.00
2018-10-12T06:00:29.141Z,704.00
2018-10-12T06:02:41.724Z,808.00
2018-10-12T06:03:41.786Z,860.00
2018-10-12T06:04:41.843Z,908.00
2018-10-12T06:05:41.912Z,960.00
2018-10-12T06:06:41.958Z,1008.00
2018-10-12T06:07:42.017Z,1060.00
2018-10-12T06:08:42.084Z,1104.00
2018-10-12T06:09:42.253Z,1160.00
2018-10-12T06:10:42.193Z,1212.00
2018-10-12T06:11:42.254Z,1260.00
2018-10-12T06:12:42.317Z,1312.00
2018-10-12T06:13:42.369Z,1356.00
2018-10-12T06:14:42.428Z,1408.00
2018-10-12T06:15:42.622Z,1448.00
2018-10-12T06:16:42.566Z,1492.00
2018-10-12T06:17:42.604Z,1532.00
2018-10-12T06:18:42.664Z,1568.00
2018-10-12T06:19:42.722Z,1596.00
2018-10-12T06:20:42.782Z,1632.00
2018-10-12T06:21:43.757Z,1664.00
2018-10-12T06:22:42.929Z,1700.00
2018-10-12T06:23:42.958Z,1728.00
2018-10-12T06:24:43.017Z,1764.00
2018-10-12T06:25:43.093Z,1796.00
2018-10-12T06:26:43.165Z,1832.00
2018-10-12T06:28:25.631Z,1876.00
2018-10-12T06:29:25.691Z,1900.00
2018-10-12T06:30:25.750Z,1924.00
2018-10-12T06:31:25.810Z,1952.00
2018-10-12T06:35:39.139Z,2040.00
2018-10-12T06:36:39.198Z,2060.00
2018-10-12T06:37:39.257Z,2080.00
2018-10-12T06:38:39.353Z,2100.00
2018-10-12T06:44:40.290Z,2252.00
2018-10-12T06:45:40.332Z,2284.00
2018-10-12T06:46:40.475Z,2332.00
2018-10-12T06:47:40.450Z,2364.00
2018-10-12T06:48:44.350Z,2392.00
2018-10-12T06:49:40.567Z,2424.00
2018-10-12T06:52:55.648Z,2520.00
2018-10-12T06:53:55.755Z,2552.00
2018-10-12T06:55:55.869Z,2612.00
2018-10-12T06:56:53.305Z,2636.00
2018-10-12T06:57:53.364Z,2676.00
2018-10-12T06:58:53.422Z,2688.00
2018-10-12T06:59:53.489Z,2720.00
2018-10-12T07:00:53.540Z,2752.00
2018-10-12T07:01:53.599Z,2780.00
2018-10-12T07:02:53.659Z,2800.00
2018-10-12T07:03:53.720Z,2828.00
2018-10-12T07:04:53.780Z,2844.00
2018-10-12T07:05:53.836Z,2864.00
2018-10-12T07:06:53.894Z,2896.00
2018-10-12T07:07:53.953Z,2908.00
2018-10-12T07:08:54.013Z,2900.00
2018-10-12T07:09:54.073Z,2896.00
2018-10-12T07:10:54.132Z,2916.00
2018-10-12T07:11:54.191Z,2964.00
2018-10-12T07:12:54.250Z,3008.00
2018-10-12T07:13:54.381Z,3044.00
2018-10-12T07:14:54.367Z,3076.00
2018-10-12T07:15:54.427Z,3096.00
2018-10-12T07:16:54.486Z,3104.00
2018-10-12T07:17:54.547Z,3116.00
2018-10-12T07:18:54.605Z,3124.00
2018-10-12T07:19:54.667Z,3128.00
2018-10-12T07:20:54.732Z,3136.00
2018-10-12T07:21:54.783Z,3148.00
2018-10-12T07:22:54.842Z,3148.00
2018-10-12T07:23:54.904Z,3148.00
2018-10-12T07:24:54.962Z,3160.00
2018-10-12T07:25:55.043Z,3160.00
2018-10-12T07:26:55.172Z,3168.00
2018-10-12T07:27:55.773Z,3168.00
2018-10-12T07:28:55.200Z,3172.00
2018-10-12T07:29:55.258Z,3168.00
2018-10-12T07:30:55.318Z,3172.00
2018-10-12T07:31:55.381Z,3172.00
2018-10-12T07:32:55.438Z,3164.00
2018-10-12T07:33:55.497Z,3148.00
2018-10-12T07:34:55.556Z,3140.00
2018-10-12T07:35:55.615Z,3104.00
2018-10-12T07:36:55.676Z,3112.00
2018-10-12T07:37:55.737Z,3140.00
2018-10-12T07:38:55.797Z,3176.00
2018-10-12T07:39:55.856Z,3204.00
2018-10-12T07:40:55.915Z,3220.00
2018-10-12T07:41:55.975Z,3232.00
2018-10-12T07:42:56.036Z,3264.00
2018-10-12T07:43:56.094Z,3316.00
2018-10-12T07:44:56.154Z,3312.00
2018-10-12T07:45:56.213Z,3340.00
2018-10-12T07:46:56.273Z,3356.00
2018-10-12T07:47:56.378Z,3388.00
2018-10-12T07:48:56.394Z,3408.00
2018-10-12T07:49:56.454Z,3416.00
2018-10-12T07:50:56.513Z,3428.00
2018-10-12T07:51:56.573Z,3440.00
2018-10-12T07:52:56.633Z,3436.00
2018-10-12T07:53:56.698Z,3356.00
2018-10-12T07:54:56.768Z,3456.00
2018-10-12T07:55:56.828Z,3500.00
2018-10-12T07:56:56.873Z,3516.00
2018-10-12T07:57:56.933Z,3536.00
2018-10-12T07:58:56.998Z,3556.00
2018-10-12T07:59:57.101Z,3588.00
2018-10-12T08:00:57.114Z,3604.00
2018-10-12T08:01:57.174Z,3616.00
2018-10-12T08:02:57.233Z,3624.00
2018-10-12T08:03:57.295Z,3632.00
2018-10-12T08:04:57.358Z,3632.00
2018-10-12T08:05:57.414Z,3636.00
2018-10-12T08:06:57.475Z,3644.00
2018-10-12T08:07:57.534Z,3648.00
2018-10-12T08:08:57.593Z,3652.00
2018-10-12T08:09:57.655Z,3668.00
2018-10-12T08:10:57.715Z,3672.00
2018-10-12T08:11:57.775Z,3664.00
2018-10-12T08:12:57.835Z,3672.00
2018-10-12T08:13:58.072Z,3688.00
2018-10-12T08:14:57.955Z,3704.00
2018-10-12T08:15:58.035Z,3700.00
2018-10-12T08:16:58.095Z,3692.00
2018-10-12T08:17:58.137Z,3688.00
2018-10-12T08:18:58.198Z,3692.00
2018-10-12T08:19:58.259Z,3692.00
2018-10-12T08:20:58.321Z,3680.00
2018-10-12T08:21:58.379Z,3668.00
2018-10-12T08:22:58.439Z,3656.00
2018-10-12T08:23:58.500Z,3648.00
2018-10-12T08:24:58.560Z,3632.00
2018-10-12T08:25:58.620Z,3632.00
2018-10-12T08:26:58.691Z,3632.00
2018-10-12T08:27:58.742Z,3616.00
2018-10-12T08:28:58.802Z,3612.00
2018-10-12T08:29:58.862Z,3620.00
2018-10-12T08:30:58.922Z,3620.00
2018-10-12T08:31:58.983Z,3612.00
2018-10-12T08:32:59.049Z,3624.00
2018-10-12T08:33:59.105Z,3636.00
2018-10-12T08:34:59.165Z,3660.00
2018-10-12T08:35:59.225Z,3664.00
2018-10-12T08:36:59.286Z,3684.00
2018-10-12T08:37:59.348Z,3716.00
2018-10-12T08:38:59.406Z,3732.00
2018-10-12T08:39:59.469Z,3756.00
2018-10-12T08:40:59.530Z,3800.00
2018-10-12T08:41:59.647Z,3828.00
2018-10-12T08:42:59.651Z,3844.00
2018-10-12T08:43:59.712Z,3888.00
2018-10-12T08:44:59.773Z,3956.00
2018-10-12T08:45:59.834Z,4004.00
2018-10-12T08:46:59.894Z,4124.00
2018-10-12T08:47:59.956Z,4184.00
2018-10-12T08:49:00.018Z,4280.00
2018-10-12T08:50:00.079Z,4528.00
2018-10-12T08:51:00.153Z,4912.00
2018-10-12T08:52:00.207Z,5364.00
2018-10-12T08:53:00.262Z,5976.00
2018-10-12T08:54:00.323Z,6728.00
2018-10-12T08:55:00.393Z,7504.00
2018-10-12T08:56:00.446Z,7964.00
2018-10-12T08:57:00.507Z,8080.00
2018-10-12T08:58:00.567Z,8044.00
2018-10-12T08:59:00.629Z,8072.00
2018-10-12T09:00:00.690Z,8024.00
2018-10-12T09:01:00.753Z,7924.00
2018-10-12T09:02:00.814Z,7708.00
2018-10-12T09:03:00.902Z,7884.00
2018-10-12T09:04:00.945Z,8352.00
2018-10-12T09:05:01.001Z,8708.00
2018-10-12T09:06:01.062Z,8928.00
2018-10-12T09:07:01.123Z,9768.00
2018-10-12T09:08:01.185Z,9900.00
2018-10-12T09:09:01.251Z,10300.00
2018-10-12T09:10:01.403Z,10800.00
2018-10-12T09:11:01.372Z,10948.00
2018-10-12T09:12:01.435Z,10940.00
2018-10-12T09:13:01.497Z,10936.00
2018-10-12T09:14:01.561Z,10580.00
2018-10-12T09:15:01.621Z,10628.00
2018-10-12T09:16:01.687Z,10348.00
2018-10-12T09:17:01.747Z,10404.00
2018-10-12T09:18:01.809Z,10404.00
2018-10-12T09:19:01.874Z,10912.00
2018-10-12T09:20:02.595Z,11188.00
2018-10-12T09:21:01.999Z,11304.00
2018-10-12T09:22:02.061Z,10732.00
2018-10-12T09:23:02.126Z,10488.00
2018-10-12T09:24:02.192Z,10064.00
2018-10-12T09:25:02.251Z,9536.00
2018-10-12T09:26:02.315Z,9236.00
2018-10-12T09:27:02.401Z,9140.00
2018-10-12T09:28:02.442Z,9268.00
2018-10-12T09:29:02.507Z,9324.00
2018-10-12T09:30:02.570Z,9292.00
2018-10-12T09:31:02.632Z,8672.00
2018-10-12T09:32:02.700Z,7716.00
2018-10-12T09:33:02.768Z,6876.00
2018-10-12T09:34:02.825Z,6560.00
2018-10-12T09:35:02.887Z,6976.00
2018-10-12T09:36:02.952Z,7480.00
2018-10-12T09:37:03.094Z,7624.00
2018-10-12T09:38:03.081Z,8016.00
2018-10-12T09:39:03.143Z,7604.00
2018-10-12T09:40:03.207Z,7692.00
2018-10-12T09:41:03.271Z,7108.00
2018-10-12T09:42:03.335Z,6432.00
2018-10-12T09:43:03.398Z,6208.00
2018-10-12T09:44:03.463Z,6296.00
2018-10-12T09:45:03.527Z,6272.00
2018-10-12T09:46:03.591Z,6300.00
2018-10-12T09:47:03.654Z,5924.00
2018-10-12T09:48:03.725Z,5872.00
2018-10-12T09:49:03.784Z,5724.00
2018-10-12T09:50:03.846Z,5276.00
2018-10-12T09:51:03.913Z,5196.00
2018-10-12T09:52:03.975Z,4612.00
2018-10-12T09:53:04.038Z,4560.00
2018-10-12T09:54:04.103Z,4824.00
2018-10-12T09:55:04.166Z,5104.00
2018-10-12T09:56:04.316Z,5176.00
2018-10-12T09:57:04.295Z,5188.00
2018-10-12T09:58:04.358Z,5148.00
2018-10-12T09:59:04.420Z,5136.00
2018-10-12T10:00:04.485Z,5180.00
2018-10-12T10:01:04.549Z,5296.00
2018-10-12T10:02:04.632Z,5480.00
2018-10-12T10:03:04.710Z,5700.00
2018-10-12T10:04:04.741Z,5696.00
2018-10-12T10:05:04.804Z,5900.00
2018-10-12T10:06:04.868Z,5944.00
2018-10-12T10:07:04.932Z,5916.00
2018-10-12T10:08:05.115Z,5932.00
2018-10-12T10:09:05.164Z,5632.00
2018-10-12T10:10:05.123Z,5344.00
2018-10-12T10:11:05.186Z,5220.00
2018-10-12T10:12:05.250Z,5072.00
2018-10-12T10:13:05.314Z,4836.00
2018-10-12T10:14:05.378Z,4804.00
2018-10-12T10:15:05.440Z,4864.00
2018-10-12T10:16:05.506Z,4740.00
2018-10-12T10:17:05.568Z,4804.00
2018-10-12T10:18:05.632Z,4872.00
2018-10-12T10:19:05.699Z,4916.00
2018-10-12T10:20:05.758Z,4952.00
2018-10-12T10:21:05.823Z,4708.00
2018-10-12T10:22:05.887Z,4440.00
2018-10-12T10:23:05.951Z,4880.00
2018-10-12T10:24:06.016Z,4704.00
2018-10-12T10:25:06.166Z,4724.00
2018-10-12T10:26:06.143Z,4724.00
2018-10-12T10:27:06.205Z,4764.00
2018-10-12T10:28:06.269Z,4764.00
2018-10-12T10:29:06.340Z,4812.00
2018-10-12T10:30:06.396Z,4856.00
2018-10-12T10:31:06.462Z,4904.00
2018-10-12T10:32:06.584Z,4964.00
2018-10-12T10:33:06.588Z,5012.00
2018-10-12T10:34:06.652Z,5088.00
2018-10-12T10:35:06.716Z,5220.00
2018-10-12T10:36:06.782Z,5472.00
2018-10-12T10:37:06.842Z,5652.00
2018-10-12T10:38:06.908Z,5808.00
2018-10-12T10:39:07.066Z,5960.00
2018-10-12T10:40:07.285Z,6064.00
2018-10-12T10:41:07.722Z,6096.00
2018-10-12T10:42:07.165Z,6088.00
2018-10-12T10:43:07.227Z,6052.00
2018-10-12T10:45:19.823Z,5984.00
2018-10-12T10:46:19.937Z,5788.00
2018-10-12T10:47:19.949Z,5596.00
2018-10-12T10:48:20.014Z,5588.00
2018-10-12T10:49:20.079Z,5500.00
2018-10-12T10:50:20.144Z,5488.00
2018-10-12T10:51:20.208Z,5696.00
2018-10-12T10:52:20.272Z,5904.00
2018-10-12T10:53:20.336Z,6120.00
2018-10-12T10:54:20.402Z,6352.00
2018-10-12T10:55:20.465Z,6712.00
2018-10-12T10:56:20.529Z,7332.00
2018-10-12T10:57:20.594Z,8508.00
2018-10-12T10:58:20.660Z,15444.00
2018-10-12T10:59:20.728Z,24384.00
2018-10-12T11:00:20.789Z,26368.00
2018-10-12T11:01:20.856Z,26400.00
2018-10-12T11:02:20.924Z,27072.00
2018-10-12T11:03:20.984Z,24672.00
2018-10-12T11:04:21.051Z,25504.00
2018-10-12T11:05:21.116Z,29536.00
2018-10-12T11:06:21.248Z,29120.00
2018-10-12T11:07:21.252Z,29216.00
2018-10-12T11:08:21.314Z,28384.00
2018-10-12T11:09:21.381Z,28480.00
2018-10-12T11:10:21.449Z,28544.00
2018-10-12T11:11:21.515Z,28640.00
2018-10-12T11:12:21.713Z,28192.00
2018-10-12T11:13:21.722Z,28480.00
2018-10-12T11:14:21.717Z,28256.00
2018-10-12T11:15:21.784Z,27968.00
2018-10-12T11:16:21.851Z,27200.00
2018-10-12T11:17:21.919Z,26560.00
2018-10-12T11:18:21.988Z,26368.00
2018-10-12T11:19:22.063Z,24384.00
2018-10-12T11:20:22.127Z,20352.00
2018-10-12T11:21:22.192Z,23072.00
2018-10-12T11:22:22.263Z,23392.00
2018-10-12T11:23:22.333Z,23936.00
2018-10-12T11:24:22.425Z,25184.00
2018-10-12T11:25:22.465Z,25344.00
2018-10-12T11:26:22.609Z,25056.00
2018-10-12T11:27:22.602Z,24800.00
2018-10-12T11:28:22.670Z,24608.00
2018-10-12T11:29:22.739Z,24224.00
2018-10-12T11:30:22.807Z,24032.00
2018-10-12T11:31:22.876Z,24000.00
2018-10-12T11:32:22.945Z,23168.00
2018-10-12T11:33:23.014Z,23136.00
2018-10-12T11:34:23.085Z,23136.00
2018-10-12T11:35:23.150Z,23040.00
2018-10-12T11:36:23.218Z,22816.00
2018-10-12T11:37:23.289Z,22592.00
2018-10-12T11:38:23.414Z,22432.00
2018-10-12T11:39:23.428Z,22240.00
2018-10-12T11:40:23.497Z,22016.00
2018-10-12T11:41:24.010Z,21952.00
2018-10-12T11:42:24.037Z,21856.00
2018-10-12T11:43:23.703Z,21760.00
2018-10-12T11:44:23.772Z,21632.00
2018-10-12T11:45:24.017Z,21728.00
2018-10-12T11:46:23.915Z,21792.00
2018-10-12T11:47:23.982Z,21824.00
2018-10-12T11:48:24.050Z,21984.00
2018-10-12T11:49:24.119Z,22208.00
2018-10-12T11:50:24.187Z,22112.00
2018-10-12T11:51:24.256Z,21856.00
2018-10-12T11:52:24.325Z,22496.00
2018-10-12T11:53:24.394Z,21760.00
2018-10-12T11:54:24.464Z,21760.00
2018-10-12T11:55:24.535Z,21856.00
2018-10-12T11:56:24.601Z,23136.00
2018-10-12T11:57:24.670Z,25024.00
2018-10-12T11:58:24.743Z,25280.00
2018-10-12T11:59:24.808Z,25600.00
2018-10-12T12:00:24.877Z,26720.00
2018-10-12T12:01:24.946Z,27968.00
2018-10-12T12:02:25.016Z,29888.00
2018-10-12T12:03:25.083Z,30848.00
2018-10-12T12:04:25.152Z,32544.00
2018-10-12T12:05:25.222Z,33952.00
2018-10-12T12:06:25.291Z,30752.00
2018-10-12T12:07:25.483Z,34400.00
2018-10-12T12:08:25.429Z,35808.00
2018-10-12T12:09:25.499Z,36864.00
2018-10-12T12:10:25.567Z,38112.00
2018-10-12T12:11:25.637Z,38752.00
2018-10-12T12:12:25.704Z,39328.00
2018-10-12T12:13:25.823Z,39296.00
2018-10-12T12:14:25.859Z,39680.00
2018-10-12T12:15:25.912Z,38304.00
2018-10-12T12:16:25.983Z,29120.00
2018-10-12T12:17:26.053Z,32960.00
2018-10-12T12:18:26.120Z,34784.00
2018-10-12T12:19:26.224Z,37184.00
2018-10-12T12:20:26.259Z,39456.00
2018-10-12T12:21:26.327Z,39616.00
2018-10-12T12:22:26.397Z,39840.00
2018-10-12T12:23:26.467Z,39456.00
2018-10-12T12:24:26.535Z,38048.00
2018-10-12T12:25:26.606Z,38592.00
2018-10-12T12:26:26.680Z,37504.00
2018-10-12T12:27:26.743Z,36064.00
2018-10-12T12:28:26.819Z,37344.00
2018-10-12T12:29:26.882Z,26656.00
2018-10-12T12:30:26.951Z,19168.00
2018-10-12T12:31:27.020Z,21856.00
2018-10-12T12:32:27.088Z,22048.00
2018-10-12T12:33:27.158Z,23808.00
2018-10-12T12:34:27.294Z,25952.00
2018-10-12T12:35:27.596Z,26656.00
2018-10-12T12:36:27.365Z,27456.00
2018-10-12T12:37:27.433Z,29248.00
2018-10-12T12:38:27.506Z,26560.00
2018-10-12T12:39:27.570Z,31616.00
2018-10-12T12:40:27.641Z,30752.00
2018-10-12T12:41:27.713Z,27360.00
2018-10-12T12:42:27.783Z,32544.00
2018-10-12T12:43:27.845Z,32224.00
2018-10-12T12:44:27.914Z,30976.00
2018-10-12T12:45:27.989Z,30368.00
2018-10-12T12:46:28.053Z,33088.00
2018-10-12T12:47:28.146Z,34624.00
2018-10-12T12:48:28.419Z,34656.00
2018-10-12T12:49:28.385Z,34080.00
2018-10-12T12:50:28.335Z,34208.00